sensor_id;sensor_type;location;lat;lon;timestamp;temperature;humidity
51996;DHT22;38010;53.264;6.592;2023-02-18T00:00:28;13.70;99.90
51996;DHT22;38010;53.264;6.592;2023-02-18T00:02:53;13.70;99.90
51996;DHT22;38010;53.264;6.592;2023-02-18T00:05:21;13.70;99.90
51996;DHT22;38010;53.264;6.592;2023-02-18T00:07:46;13.70;99.90
51996;DHT22;38010;53.264;6.592;2023-02-18T00:10:14;13.60;99.90
51996;DHT22;38010;53.264;6.592;2023-02-18T00:12:40;13.70;99.90
51996;DHT22;38010;53.264;6.592;2023-02-18T00:15:06;13.70;99.90
51996;DHT22;38010;53.264;6.592;2023-02-18T00:17:33;13.70;99.90
51996;DHT22;38010;53.264;6.592;2023-02-18T00:19:58;13.70;99.90
51996;DHT22;38010;53.264;6.592;2023-02-18T00:22:24;13.70;99.90
51996;DHT22;38010;53.264;6.592;2023-02-18T00:24:50;13.70;99.90
51996;DHT22;38010;53.264;6.592;2023-02-18T00:27:16;13.60;99.90
51996;DHT22;38010;53.264;6.592;2023-02-18T00:29:41;13.70;99.90
51996;DHT22;38010;53.264;6.592;2023-02-18T00:32:07;13.70;99.90
51996;DHT22;38010;53.264;6.592;2023-02-18T00:34:33;13.60;99.90
51996;DHT22;38010;53.264;6.592;2023-02-18T00:36:58;13.60;99.90
51996;DHT22;38010;53.264;6.592;2023-02-18T00:39:24;13.60;99.90
51996;DHT22;38010;53.264;6.592;2023-02-18T00:41:50;13.60;99.90
51996;DHT22;38010;53.264;6.592;2023-02-18T00:44:15;13.60;99.90
51996;DHT22;38010;53.264;6.592;2023-02-18T00:46:41;13.60;99.90
51996;DHT22;38010;53.264;6.592;2023-02-18T00:49:08;13.60;99.90
51996;DHT22;38010;53.264;6.592;2023-02-18T00:51:34;13.60;99.90
51996;DHT22;38010;53.264;6.592;2023-02-18T00:54:00;13.60;99.90
51996;DHT22;38010;53.264;6.592;2023-02-18T00:56:26;13.60;99.90
51996;DHT22;38010;53.264;6.592;2023-02-18T00:58:52;13.60;99.90
51996;DHT22;38010;53.264;6.592;2023-02-18T01:01:18;13.60;99.90
51996;DHT22;38010;53.264;6.592;2023-02-18T01:03:44;13.60;99.90
51996;DHT22;38010;53.264;6.592;2023-02-18T01:06:11;13.60;99.90
51996;DHT22;38010;53.264;6.592;2023-02-18T01:08:38;13.60;99.90
51996;DHT22;38010;53.264;6.592;2023-02-18T01:11:05;13.60;99.90
51996;DHT22;38010;53.264;6.592;2023-02-18T01:13:31;13.60;99.90
51996;DHT22;38010;53.264;6.592;2023-02-18T01:15:58;13.60;99.90
51996;DHT22;38010;53.264;6.592;2023-02-18T01:18:25;13.60;99.90
51996;DHT22;38010;53.264;6.592;2023-02-18T01:20:51;13.60;99.90
51996;DHT22;38010;53.264;6.592;2023-02-18T01:23:17;13.60;99.90
51996;DHT22;38010;53.264;6.592;2023-02-18T01:25:43;13.60;99.90
51996;DHT22;38010;53.264;6.592;2023-02-18T01:28:10;13.60;99.90
51996;DHT22;38010;53.264;6.592;2023-02-18T01:30:36;13.60;99.90
51996;DHT22;38010;53.264;6.592;2023-02-18T01:33:02;13.50;99.90
51996;DHT22;38010;53.264;6.592;2023-02-18T01:35:28;13.50;99.90
51996;DHT22;38010;53.264;6.592;2023-02-18T01:37:54;13.50;99.90
51996;DHT22;38010;53.264;6.592;2023-02-18T01:40:23;13.50;99.90
51996;DHT22;38010;53.264;6.592;2023-02-18T01:42:49;13.50;99.90
51996;DHT22;38010;53.264;6.592;2023-02-18T01:48:12;13.50;99.90
51996;DHT22;38010;53.264;6.592;2023-02-18T01:50:52;13.50;99.90
51996;DHT22;38010;53.264;6.592;2023-02-18T01:53:25;13.50;99.90
51996;DHT22;38010;53.264;6.592;2023-02-18T01:55:52;13.50;99.90
51996;DHT22;38010;53.264;6.592;2023-02-18T01:58:19;13.50;99.90
51996;DHT22;38010;53.264;6.592;2023-02-18T02:00:44;13.50;99.90
51996;DHT22;38010;53.264;6.592;2023-02-18T02:03:10;13.50;99.90
51996;DHT22;38010;53.264;6.592;2023-02-18T02:05:36;13.50;99.90
51996;DHT22;38010;53.264;6.592;2023-02-18T02:08:02;13.50;99.90
51996;DHT22;38010;53.264;6.592;2023-02-18T02:11:01;13.50;99.90
51996;DHT22;38010;53.264;6.592;2023-02-18T02:16:17;13.50;99.90
51996;DHT22;38010;53.264;6.592;2023-02-18T02:27:25;13.50;99.90
51996;DHT22;38010;53.264;6.592;2023-02-18T02:30:16;13.50;99.90
51996;DHT22;38010;53.264;6.592;2023-02-18T02:38:27;13.50;99.90
51996;DHT22;38010;53.264;6.592;2023-02-18T02:41:07;13.50;99.90
51996;DHT22;38010;53.264;6.592;2023-02-18T02:44:18;13.50;99.90
51996;DHT22;38010;53.264;6.592;2023-02-18T02:46:47;13.40;99.90
51996;DHT22;38010;53.264;6.592;2023-02-18T02:49:35;13.40;99.90
51996;DHT22;38010;53.264;6.592;2023-02-18T02:52:05;13.40;99.90
51996;DHT22;38010;53.264;6.592;2023-02-18T02:54:32;13.40;99.90
51996;DHT22;38010;53.264;6.592;2023-02-18T02:57:05;13.40;99.90
51996;DHT22;38010;53.264;6.592;2023-02-18T02:59:32;13.40;99.90
51996;DHT22;38010;53.264;6.592;2023-02-18T03:10:54;13.40;99.90
51996;DHT22;38010;53.264;6.592;2023-02-18T03:14:10;13.40;99.90
51996;DHT22;38010;53.264;6.592;2023-02-18T03:18:44;13.40;99.90
51996;DHT22;38010;53.264;6.592;2023-02-18T03:21:20;13.40;99.90
51996;DHT22;38010;53.264;6.592;2023-02-18T03:23:57;13.40;99.90
51996;DHT22;38010;53.264;6.592;2023-02-18T03:26:26;13.40;99.90
51996;DHT22;38010;53.264;6.592;2023-02-18T03:28:55;13.40;99.90
51996;DHT22;38010;53.264;6.592;2023-02-18T03:31:26;13.40;99.90
51996;DHT22;38010;53.264;6.592;2023-02-18T03:34:15;13.40;99.90
51996;DHT22;38010;53.264;6.592;2023-02-18T03:36:41;13.40;99.90
51996;DHT22;38010;53.264;6.592;2023-02-18T03:39:13;13.40;99.90
51996;DHT22;38010;53.264;6.592;2023-02-18T03:41:39;13.40;99.90
51996;DHT22;38010;53.264;6.592;2023-02-18T03:44:07;13.40;99.90
51996;DHT22;38010;53.264;6.592;2023-02-18T03:46:35;13.40;99.90
51996;DHT22;38010;53.264;6.592;2023-02-18T03:49:01;13.40;99.90
51996;DHT22;38010;53.264;6.592;2023-02-18T03:51:27;13.40;99.90
51996;DHT22;38010;53.264;6.592;2023-02-18T03:53:53;13.40;99.90
51996;DHT22;38010;53.264;6.592;2023-02-18T03:56:19;13.40;99.90
51996;DHT22;38010;53.264;6.592;2023-02-18T03:58:45;13.40;99.90
51996;DHT22;38010;53.264;6.592;2023-02-18T04:01:11;13.40;99.90
51996;DHT22;38010;53.264;6.592;2023-02-18T04:03:37;13.40;99.90
51996;DHT22;38010;53.264;6.592;2023-02-18T04:06:03;13.40;99.90
51996;DHT22;38010;53.264;6.592;2023-02-18T04:08:29;13.40;99.90
51996;DHT22;38010;53.264;6.592;2023-02-18T04:10:55;13.40;99.90
51996;DHT22;38010;53.264;6.592;2023-02-18T04:13:20;13.40;99.90
51996;DHT22;38010;53.264;6.592;2023-02-18T04:15:48;13.40;99.90
51996;DHT22;38010;53.264;6.592;2023-02-18T04:18:14;13.40;99.90
51996;DHT22;38010;53.264;6.592;2023-02-18T04:20:40;13.40;99.90
51996;DHT22;38010;53.264;6.592;2023-02-18T04:23:05;13.40;99.90
51996;DHT22;38010;53.264;6.592;2023-02-18T04:25:31;13.40;99.90
51996;DHT22;38010;53.264;6.592;2023-02-18T04:27:57;13.40;99.90
51996;DHT22;38010;53.264;6.592;2023-02-18T04:30:23;13.40;99.90
51996;DHT22;38010;53.264;6.592;2023-02-18T04:32:49;13.30;99.90
51996;DHT22;38010;53.264;6.592;2023-02-18T04:35:15;13.30;99.90
51996;DHT22;38010;53.264;6.592;2023-02-18T04:37:41;13.40;99.90
51996;DHT22;38010;53.264;6.592;2023-02-18T04:40:08;13.40;99.90
51996;DHT22;38010;53.264;6.592;2023-02-18T04:42:34;13.40;99.90
51996;DHT22;38010;53.264;6.592;2023-02-18T04:44:59;13.40;99.90
51996;DHT22;38010;53.264;6.592;2023-02-18T04:47:25;13.40;99.90
51996;DHT22;38010;53.264;6.592;2023-02-18T04:49:51;13.40;99.90
51996;DHT22;38010;53.264;6.592;2023-02-18T04:52:17;13.40;99.90
51996;DHT22;38010;53.264;6.592;2023-02-18T04:54:43;13.40;99.90
51996;DHT22;38010;53.264;6.592;2023-02-18T04:57:08;13.30;99.90
51996;DHT22;38010;53.264;6.592;2023-02-18T04:59:34;13.30;99.90
51996;DHT22;38010;53.264;6.592;2023-02-18T05:02:00;13.30;99.90
51996;DHT22;38010;53.264;6.592;2023-02-18T05:04:26;13.30;99.90
51996;DHT22;38010;53.264;6.592;2023-02-18T05:06:52;13.30;99.90
51996;DHT22;38010;53.264;6.592;2023-02-18T05:09:17;13.30;99.90
51996;DHT22;38010;53.264;6.592;2023-02-18T05:11:43;13.30;99.90
51996;DHT22;38010;53.264;6.592;2023-02-18T05:14:09;13.30;99.90
51996;DHT22;38010;53.264;6.592;2023-02-18T05:16:35;13.30;99.90
51996;DHT22;38010;53.264;6.592;2023-02-18T05:19:00;13.30;99.90
51996;DHT22;38010;53.264;6.592;2023-02-18T05:21:26;13.30;99.90
51996;DHT22;38010;53.264;6.592;2023-02-18T05:23:52;13.30;99.90
51996;DHT22;38010;53.264;6.592;2023-02-18T05:26:17;13.30;99.90
51996;DHT22;38010;53.264;6.592;2023-02-18T05:28:43;13.30;99.90
51996;DHT22;38010;53.264;6.592;2023-02-18T05:31:09;13.30;99.90
51996;DHT22;38010;53.264;6.592;2023-02-18T05:33:34;13.30;99.90
51996;DHT22;38010;53.264;6.592;2023-02-18T05:36:00;13.30;99.90
51996;DHT22;38010;53.264;6.592;2023-02-18T05:38:26;13.30;99.90
51996;DHT22;38010;53.264;6.592;2023-02-18T05:40:51;13.30;99.90
51996;DHT22;38010;53.264;6.592;2023-02-18T05:43:17;13.30;99.90
51996;DHT22;38010;53.264;6.592;2023-02-18T05:45:43;13.30;99.90
51996;DHT22;38010;53.264;6.592;2023-02-18T05:48:08;13.30;99.90
51996;DHT22;38010;53.264;6.592;2023-02-18T05:50:34;13.30;99.90
51996;DHT22;38010;53.264;6.592;2023-02-18T05:53:00;13.30;99.90
51996;DHT22;38010;53.264;6.592;2023-02-18T05:55:26;13.30;99.90
51996;DHT22;38010;53.264;6.592;2023-02-18T05:57:51;13.30;99.90
51996;DHT22;38010;53.264;6.592;2023-02-18T06:00:17;13.30;99.90
51996;DHT22;38010;53.264;6.592;2023-02-18T06:02:43;13.30;99.90
51996;DHT22;38010;53.264;6.592;2023-02-18T06:05:09;13.30;99.90
51996;DHT22;38010;53.264;6.592;2023-02-18T06:07:35;13.30;99.90
51996;DHT22;38010;53.264;6.592;2023-02-18T06:10:01;13.30;99.90
51996;DHT22;38010;53.264;6.592;2023-02-18T06:12:27;13.30;99.90
51996;DHT22;38010;53.264;6.592;2023-02-18T06:14:52;13.30;99.90
51996;DHT22;38010;53.264;6.592;2023-02-18T06:17:18;13.30;99.90
51996;DHT22;38010;53.264;6.592;2023-02-18T06:19:44;13.30;99.90
51996;DHT22;38010;53.264;6.592;2023-02-18T06:22:11;13.30;99.90
51996;DHT22;38010;53.264;6.592;2023-02-18T06:24:37;13.20;99.90
51996;DHT22;38010;53.264;6.592;2023-02-18T06:27:03;13.20;99.90
51996;DHT22;38010;53.264;6.592;2023-02-18T06:29:29;13.20;99.90
51996;DHT22;38010;53.264;6.592;2023-02-18T06:31:56;13.20;99.90
51996;DHT22;38010;53.264;6.592;2023-02-18T06:34:23;13.20;99.90
51996;DHT22;38010;53.264;6.592;2023-02-18T06:36:49;13.20;99.90
51996;DHT22;38010;53.264;6.592;2023-02-18T06:39:14;13.20;99.90
51996;DHT22;38010;53.264;6.592;2023-02-18T06:41:40;13.20;99.90
51996;DHT22;38010;53.264;6.592;2023-02-18T06:44:06;13.20;99.90
51996;DHT22;38010;53.264;6.592;2023-02-18T06:46:32;13.20;99.90
51996;DHT22;38010;53.264;6.592;2023-02-18T06:48:58;13.20;99.90
51996;DHT22;38010;53.264;6.592;2023-02-18T06:51:24;13.20;99.90
51996;DHT22;38010;53.264;6.592;2023-02-18T06:53:50;13.20;99.90
51996;DHT22;38010;53.264;6.592;2023-02-18T06:56:16;13.20;99.90
51996;DHT22;38010;53.264;6.592;2023-02-18T06:58:42;13.20;99.90
51996;DHT22;38010;53.264;6.592;2023-02-18T07:01:07;13.20;99.90
51996;DHT22;38010;53.264;6.592;2023-02-18T07:03:33;13.20;99.90
51996;DHT22;38010;53.264;6.592;2023-02-18T07:05:59;13.20;99.90
51996;DHT22;38010;53.264;6.592;2023-02-18T07:08:25;13.20;99.90
51996;DHT22;38010;53.264;6.592;2023-02-18T07:10:51;13.20;99.90
51996;DHT22;38010;53.264;6.592;2023-02-18T07:13:17;13.20;99.90
51996;DHT22;38010;53.264;6.592;2023-02-18T07:15:43;13.20;99.90
51996;DHT22;38010;53.264;6.592;2023-02-18T07:18:08;13.20;99.90
51996;DHT22;38010;53.264;6.592;2023-02-18T07:20:34;13.20;99.90
51996;DHT22;38010;53.264;6.592;2023-02-18T07:23:00;13.20;99.90
51996;DHT22;38010;53.264;6.592;2023-02-18T07:25:26;13.20;99.90
51996;DHT22;38010;53.264;6.592;2023-02-18T07:27:52;13.20;99.90
51996;DHT22;38010;53.264;6.592;2023-02-18T07:30:18;13.20;99.90
51996;DHT22;38010;53.264;6.592;2023-02-18T07:32:44;13.30;99.90
51996;DHT22;38010;53.264;6.592;2023-02-18T07:35:13;13.30;99.90
51996;DHT22;38010;53.264;6.592;2023-02-18T07:37:43;13.30;99.90
51996;DHT22;38010;53.264;6.592;2023-02-18T07:40:11;13.30;99.90
51996;DHT22;38010;53.264;6.592;2023-02-18T07:42:37;13.30;99.90
51996;DHT22;38010;53.264;6.592;2023-02-18T07:45:03;13.40;99.90
51996;DHT22;38010;53.264;6.592;2023-02-18T07:47:28;13.40;99.90
51996;DHT22;38010;53.264;6.592;2023-02-18T07:49:54;13.40;99.90
51996;DHT22;38010;53.264;6.592;2023-02-18T07:52:20;13.40;99.90
51996;DHT22;38010;53.264;6.592;2023-02-18T07:54:45;13.40;99.90
51996;DHT22;38010;53.264;6.592;2023-02-18T07:57:11;13.40;99.90
51996;DHT22;38010;53.264;6.592;2023-02-18T07:59:37;13.40;99.90
51996;DHT22;38010;53.264;6.592;2023-02-18T08:02:03;13.40;99.90
51996;DHT22;38010;53.264;6.592;2023-02-18T08:04:30;13.40;99.90
51996;DHT22;38010;53.264;6.592;2023-02-18T08:06:55;13.40;99.90
51996;DHT22;38010;53.264;6.592;2023-02-18T08:09:21;13.40;99.90
51996;DHT22;38010;53.264;6.592;2023-02-18T08:11:47;13.40;99.90
51996;DHT22;38010;53.264;6.592;2023-02-18T08:14:13;13.30;99.90
51996;DHT22;38010;53.264;6.592;2023-02-18T08:16:39;13.40;99.90
51996;DHT22;38010;53.264;6.592;2023-02-18T08:19:04;13.30;99.90
51996;DHT22;38010;53.264;6.592;2023-02-18T08:21:30;13.40;99.90
51996;DHT22;38010;53.264;6.592;2023-02-18T08:23:57;13.40;99.90
51996;DHT22;38010;53.264;6.592;2023-02-18T08:26:24;13.40;99.90
51996;DHT22;38010;53.264;6.592;2023-02-18T08:28:49;13.40;99.90
51996;DHT22;38010;53.264;6.592;2023-02-18T08:31:26;13.40;99.90
51996;DHT22;38010;53.264;6.592;2023-02-18T08:33:54;13.40;99.90
51996;DHT22;38010;53.264;6.592;2023-02-18T08:36:20;13.40;99.90
51996;DHT22;38010;53.264;6.592;2023-02-18T08:38:46;13.30;99.90
51996;DHT22;38010;53.264;6.592;2023-02-18T08:41:12;13.40;99.90
51996;DHT22;38010;53.264;6.592;2023-02-18T08:43:39;13.40;99.90
51996;DHT22;38010;53.264;6.592;2023-02-18T08:46:05;13.30;99.90
51996;DHT22;38010;53.264;6.592;2023-02-18T08:48:31;13.40;99.90
51996;DHT22;38010;53.264;6.592;2023-02-18T08:50:57;13.30;99.90
51996;DHT22;38010;53.264;6.592;2023-02-18T08:53:22;13.30;99.90
51996;DHT22;38010;53.264;6.592;2023-02-18T08:55:48;13.30;99.90
51996;DHT22;38010;53.264;6.592;2023-02-18T08:58:14;13.40;99.90
51996;DHT22;38010;53.264;6.592;2023-02-18T09:00:42;13.30;99.90
51996;DHT22;38010;53.264;6.592;2023-02-18T09:03:13;13.30;99.90
51996;DHT22;38010;53.264;6.592;2023-02-18T09:05:39;13.30;99.90
51996;DHT22;38010;53.264;6.592;2023-02-18T09:08:05;13.30;99.90
51996;DHT22;38010;53.264;6.592;2023-02-18T09:10:31;13.30;99.90
51996;DHT22;38010;53.264;6.592;2023-02-18T09:12:56;13.40;99.90
51996;DHT22;38010;53.264;6.592;2023-02-18T09:15:22;13.30;99.90
51996;DHT22;38010;53.264;6.592;2023-02-18T09:17:48;13.30;99.90
51996;DHT22;38010;53.264;6.592;2023-02-18T09:20:13;13.30;99.90
51996;DHT22;38010;53.264;6.592;2023-02-18T09:22:39;13.30;99.90
51996;DHT22;38010;53.264;6.592;2023-02-18T09:25:05;13.40;99.90
51996;DHT22;38010;53.264;6.592;2023-02-18T09:27:31;13.30;99.90
51996;DHT22;38010;53.264;6.592;2023-02-18T09:29:57;13.30;99.90
51996;DHT22;38010;53.264;6.592;2023-02-18T09:32:23;13.40;99.90
51996;DHT22;38010;53.264;6.592;2023-02-18T09:34:49;13.40;99.90
51996;DHT22;38010;53.264;6.592;2023-02-18T09:37:14;13.40;99.90
51996;DHT22;38010;53.264;6.592;2023-02-18T09:39:40;13.40;99.90
51996;DHT22;38010;53.264;6.592;2023-02-18T09:42:14;13.40;99.90
51996;DHT22;38010;53.264;6.592;2023-02-18T09:44:50;13.30;99.90
51996;DHT22;38010;53.264;6.592;2023-02-18T09:49:59;13.30;99.90
51996;DHT22;38010;53.264;6.592;2023-02-18T09:52:29;13.40;99.90
51996;DHT22;38010;53.264;6.592;2023-02-18T09:54:56;13.40;99.90
51996;DHT22;38010;53.264;6.592;2023-02-18T09:57:26;13.40;99.90
51996;DHT22;38010;53.264;6.592;2023-02-18T10:00:05;13.40;99.90
51996;DHT22;38010;53.264;6.592;2023-02-18T10:02:33;13.40;99.90
51996;DHT22;38010;53.264;6.592;2023-02-18T10:05:00;13.40;99.90
51996;DHT22;38010;53.264;6.592;2023-02-18T10:07:29;13.40;99.90
51996;DHT22;38010;53.264;6.592;2023-02-18T10:09:58;13.40;99.90
51996;DHT22;38010;53.264;6.592;2023-02-18T10:12:26;13.40;99.90
51996;DHT22;38010;53.264;6.592;2023-02-18T10:14:58;13.40;99.90
51996;DHT22;38010;53.264;6.592;2023-02-18T10:17:27;13.40;99.90
51996;DHT22;38010;53.264;6.592;2023-02-18T10:19:55;13.40;99.90
51996;DHT22;38010;53.264;6.592;2023-02-18T10:22:23;13.40;99.90
51996;DHT22;38010;53.264;6.592;2023-02-18T10:24:59;13.40;99.90
51996;DHT22;38010;53.264;6.592;2023-02-18T10:27:27;13.40;99.90
51996;DHT22;38010;53.264;6.592;2023-02-18T10:29:55;13.40;99.90
51996;DHT22;38010;53.264;6.592;2023-02-18T10:32:37;13.40;99.90
51996;DHT22;38010;53.264;6.592;2023-02-18T10:35:36;13.40;99.90
51996;DHT22;38010;53.264;6.592;2023-02-18T10:41:01;13.40;99.90
51996;DHT22;38010;53.264;6.592;2023-02-18T10:46:11;13.40;99.90
51996;DHT22;38010;53.264;6.592;2023-02-18T10:51:21;13.40;99.90
51996;DHT22;38010;53.264;6.592;2023-02-18T10:53:49;13.40;99.90
51996;DHT22;38010;53.264;6.592;2023-02-18T10:56:33;13.40;99.90
51996;DHT22;38010;53.264;6.592;2023-02-18T10:59:25;13.40;99.90
51996;DHT22;38010;53.264;6.592;2023-02-18T11:02:02;13.40;99.90
51996;DHT22;38010;53.264;6.592;2023-02-18T11:04:39;13.40;99.90
51996;DHT22;38010;53.264;6.592;2023-02-18T11:07:14;13.40;99.90
51996;DHT22;38010;53.264;6.592;2023-02-18T11:17:32;13.40;99.90
51996;DHT22;38010;53.264;6.592;2023-02-18T11:20:00;13.40;99.90
51996;DHT22;38010;53.264;6.592;2023-02-18T11:22:31;13.40;99.90
51996;DHT22;38010;53.264;6.592;2023-02-18T11:25:00;13.40;99.90
51996;DHT22;38010;53.264;6.592;2023-02-18T11:27:45;13.40;99.90
51996;DHT22;38010;53.264;6.592;2023-02-18T11:32:49;13.50;99.90
51996;DHT22;38010;53.264;6.592;2023-02-18T11:35:20;13.50;99.90
51996;DHT22;38010;53.264;6.592;2023-02-18T11:37:46;13.50;99.90
51996;DHT22;38010;53.264;6.592;2023-02-18T11:40:25;13.50;99.90
51996;DHT22;38010;53.264;6.592;2023-02-18T11:43:02;13.50;99.90
51996;DHT22;38010;53.264;6.592;2023-02-18T11:45:31;13.50;99.90
51996;DHT22;38010;53.264;6.592;2023-02-18T11:48:00;13.50;99.90
51996;DHT22;38010;53.264;6.592;2023-02-18T11:50:30;13.50;99.90
51996;DHT22;38010;53.264;6.592;2023-02-18T11:52:56;13.50;99.90
51996;DHT22;38010;53.264;6.592;2023-02-18T11:55:26;13.50;99.90
51996;DHT22;38010;53.264;6.592;2023-02-18T11:57:57;13.50;99.90
51996;DHT22;38010;53.264;6.592;2023-02-18T12:00:37;13.50;99.90
51996;DHT22;38010;53.264;6.592;2023-02-18T12:05:44;13.60;99.90
51996;DHT22;38010;53.264;6.592;2023-02-18T12:08:24;13.60;99.90
51996;DHT22;38010;53.264;6.592;2023-02-18T12:11:00;13.60;99.90
51996;DHT22;38010;53.264;6.592;2023-02-18T12:16:02;13.60;99.90
51996;DHT22;38010;53.264;6.592;2023-02-18T12:24:44;13.70;99.90
51996;DHT22;38010;53.264;6.592;2023-02-18T12:44:34;13.80;99.90
51996;DHT22;38010;53.264;6.592;2023-02-18T12:53:31;13.90;99.90
51996;DHT22;38010;53.264;6.592;2023-02-18T13:04:28;14.00;99.90
51996;DHT22;38010;53.264;6.592;2023-02-18T13:12:53;13.90;99.90
51996;DHT22;38010;53.264;6.592;2023-02-18T13:18:34;13.90;99.90
51996;DHT22;38010;53.264;6.592;2023-02-18T13:21:07;13.80;99.90
51996;DHT22;38010;53.264;6.592;2023-02-18T13:23:34;13.80;99.90
51996;DHT22;38010;53.264;6.592;2023-02-18T13:26:04;13.80;99.90
51996;DHT22;38010;53.264;6.592;2023-02-18T13:31:41;13.80;99.90
51996;DHT22;38010;53.264;6.592;2023-02-18T13:34:31;13.80;99.90
51996;DHT22;38010;53.264;6.592;2023-02-18T13:37:19;13.90;99.90
51996;DHT22;38010;53.264;6.592;2023-02-18T13:40:08;13.90;99.90
51996;DHT22;38010;53.264;6.592;2023-02-18T13:42:39;13.90;99.90
51996;DHT22;38010;53.264;6.592;2023-02-18T13:45:21;14.00;99.90
51996;DHT22;38010;53.264;6.592;2023-02-18T13:47:48;13.90;99.90
51996;DHT22;38010;53.264;6.592;2023-02-18T13:55:33;14.00;99.90
51996;DHT22;38010;53.264;6.592;2023-02-18T13:58:00;14.10;99.90
51996;DHT22;38010;53.264;6.592;2023-02-18T14:00:35;14.20;99.90
51996;DHT22;38010;53.264;6.592;2023-02-18T14:06:01;14.50;99.90
51996;DHT22;38010;53.264;6.592;2023-02-18T14:08:38;14.70;99.90
51996;DHT22;38010;53.264;6.592;2023-02-18T14:13:53;15.00;99.90
51996;DHT22;38010;53.264;6.592;2023-02-18T14:16:19;15.20;99.90
51996;DHT22;38010;53.264;6.592;2023-02-18T14:33:41;15.30;99.90
51996;DHT22;38010;53.264;6.592;2023-02-18T14:39:20;15.20;99.90
51996;DHT22;38010;53.264;6.592;2023-02-18T14:50:12;15.40;99.90
51996;DHT22;38010;53.264;6.592;2023-02-18T14:55:36;15.40;99.90
51996;DHT22;38010;53.264;6.592;2023-02-18T14:58:29;15.40;99.90
51996;DHT22;38010;53.264;6.592;2023-02-18T15:00:56;15.40;99.90
51996;DHT22;38010;53.264;6.592;2023-02-18T15:03:25;15.40;99.90
51996;DHT22;38010;53.264;6.592;2023-02-18T15:05:51;15.40;99.90
51996;DHT22;38010;53.264;6.592;2023-02-18T15:08:24;15.40;99.90
51996;DHT22;38010;53.264;6.592;2023-02-18T15:11:05;15.40;99.90
51996;DHT22;38010;53.264;6.592;2023-02-18T15:13:39;15.40;99.90
51996;DHT22;38010;53.264;6.592;2023-02-18T15:16:33;15.40;99.90
51996;DHT22;38010;53.264;6.592;2023-02-18T15:19:03;15.40;99.90
51996;DHT22;38010;53.264;6.592;2023-02-18T15:21:32;15.30;99.90
51996;DHT22;38010;53.264;6.592;2023-02-18T15:26:53;15.30;99.90
51996;DHT22;38010;53.264;6.592;2023-02-18T15:29:28;15.30;99.90
51996;DHT22;38010;53.264;6.592;2023-02-18T15:31:56;15.20;99.90
51996;DHT22;38010;53.264;6.592;2023-02-18T15:36:54;15.10;99.90
51996;DHT22;38010;53.264;6.592;2023-02-18T15:39:21;15.10;99.90
51996;DHT22;38010;53.264;6.592;2023-02-18T15:41:55;15.10;99.90
51996;DHT22;38010;53.264;6.592;2023-02-18T15:44:24;15.00;99.90
51996;DHT22;38010;53.264;6.592;2023-02-18T15:46:50;15.00;99.90
51996;DHT22;38010;53.264;6.592;2023-02-18T15:49:21;15.00;99.90
51996;DHT22;38010;53.264;6.592;2023-02-18T15:51:47;14.90;99.90
51996;DHT22;38010;53.264;6.592;2023-02-18T15:54:17;14.90;99.90
51996;DHT22;38010;53.264;6.592;2023-02-18T15:56:45;14.90;99.90
51996;DHT22;38010;53.264;6.592;2023-02-18T15:59:16;14.80;99.90
51996;DHT22;38010;53.264;6.592;2023-02-18T16:01:50;14.80;99.90
51996;DHT22;38010;53.264;6.592;2023-02-18T16:04:17;14.80;99.90
51996;DHT22;38010;53.264;6.592;2023-02-18T16:06:49;14.80;99.90
51996;DHT22;38010;53.264;6.592;2023-02-18T16:09:33;14.70;99.90
51996;DHT22;38010;53.264;6.592;2023-02-18T16:12:02;14.70;99.90
51996;DHT22;38010;53.264;6.592;2023-02-18T16:14:33;14.70;99.90
51996;DHT22;38010;53.264;6.592;2023-02-18T16:17:27;14.70;99.90
51996;DHT22;38010;53.264;6.592;2023-02-18T16:20:14;14.70;99.90
51996;DHT22;38010;53.264;6.592;2023-02-18T16:22:45;14.70;99.90
51996;DHT22;38010;53.264;6.592;2023-02-18T16:25:26;14.60;99.90
51996;DHT22;38010;53.264;6.592;2023-02-18T16:30:27;14.70;99.90
51996;DHT22;38010;53.264;6.592;2023-02-18T16:32:57;14.70;99.90
51996;DHT22;38010;53.264;6.592;2023-02-18T16:35:25;14.70;99.90
51996;DHT22;38010;53.264;6.592;2023-02-18T16:37:52;14.70;99.90
51996;DHT22;38010;53.264;6.592;2023-02-18T16:42:54;14.80;99.90
51996;DHT22;38010;53.264;6.592;2023-02-18T16:45:26;14.70;99.90
51996;DHT22;38010;53.264;6.592;2023-02-18T16:47:55;14.70;99.90
51996;DHT22;38010;53.264;6.592;2023-02-18T16:50:21;14.80;99.90
51996;DHT22;38010;53.264;6.592;2023-02-18T16:52:48;14.80;99.90
51996;DHT22;38010;53.264;6.592;2023-02-18T16:55:19;14.80;99.90
51996;DHT22;38010;53.264;6.592;2023-02-18T16:57:46;14.80;99.90
51996;DHT22;38010;53.264;6.592;2023-02-18T17:00:13;14.80;99.90
51996;DHT22;38010;53.264;6.592;2023-02-18T17:02:39;14.80;99.90
51996;DHT22;38010;53.264;6.592;2023-02-18T17:05:05;14.80;99.90
51996;DHT22;38010;53.264;6.592;2023-02-18T17:07:31;14.80;99.90
51996;DHT22;38010;53.264;6.592;2023-02-18T17:09:59;14.80;99.90
51996;DHT22;38010;53.264;6.592;2023-02-18T17:12:25;14.80;99.90
51996;DHT22;38010;53.264;6.592;2023-02-18T17:14:51;14.80;99.90
51996;DHT22;38010;53.264;6.592;2023-02-18T17:17:17;14.80;99.90
51996;DHT22;38010;53.264;6.592;2023-02-18T17:19:49;14.80;99.90
51996;DHT22;38010;53.264;6.592;2023-02-18T17:22:15;14.80;99.90
51996;DHT22;38010;53.264;6.592;2023-02-18T17:24:41;14.80;99.90
51996;DHT22;38010;53.264;6.592;2023-02-18T17:27:08;14.70;99.90
51996;DHT22;38010;53.264;6.592;2023-02-18T17:29:34;14.70;99.90
51996;DHT22;38010;53.264;6.592;2023-02-18T17:32:00;14.70;99.90
51996;DHT22;38010;53.264;6.592;2023-02-18T17:34:29;14.70;99.90
51996;DHT22;38010;53.264;6.592;2023-02-18T17:36:57;14.70;99.90
51996;DHT22;38010;53.264;6.592;2023-02-18T17:39:23;14.70;99.90
51996;DHT22;38010;53.264;6.592;2023-02-18T17:41:49;14.80;99.90
51996;DHT22;38010;53.264;6.592;2023-02-18T17:44:19;14.80;99.90
51996;DHT22;38010;53.264;6.592;2023-02-18T17:46:45;14.80;99.90
51996;DHT22;38010;53.264;6.592;2023-02-18T17:49:12;14.90;99.90
51996;DHT22;38010;53.264;6.592;2023-02-18T17:51:37;14.90;99.90
51996;DHT22;38010;53.264;6.592;2023-02-18T17:54:17;14.90;99.90
51996;DHT22;38010;53.264;6.592;2023-02-18T17:56:44;15.00;99.90
51996;DHT22;38010;53.264;6.592;2023-02-18T17:59:09;15.10;99.90
51996;DHT22;38010;53.264;6.592;2023-02-18T18:01:35;15.10;99.90
51996;DHT22;38010;53.264;6.592;2023-02-18T18:04:01;15.20;99.90
51996;DHT22;38010;53.264;6.592;2023-02-18T18:06:27;15.20;99.90
51996;DHT22;38010;53.264;6.592;2023-02-18T18:08:53;15.30;99.90
51996;DHT22;38010;53.264;6.592;2023-02-18T18:11:21;15.30;99.90
51996;DHT22;38010;53.264;6.592;2023-02-18T18:13:47;15.30;99.90
51996;DHT22;38010;53.264;6.592;2023-02-18T18:16:15;15.30;99.90
51996;DHT22;38010;53.264;6.592;2023-02-18T18:18:42;15.30;99.90